GHFCT EGMC-EGSS
Flight info
| Callsign | GHFCT |
|---|---|
| Flight time | 0h 30m |
| Altitude | 6000 |
| Route | EVNAS/N0178F090 DCT ABBOT |
| Aircraft | DA42/L-SBDGRY/S |
Departure
| Time | 2026-05-06 14:28 |
|---|---|
| Airport | London Southend Airport (EGMC) |
Arrival
| Time | 2026-05-06 14:58 |
|---|---|
| Airport | London Stansted Airport (EGSS) |
| Time | Latitude | Longitude | Altitude | Speed | Heading |
|---|---|---|---|---|---|
| 2026-05-06 14:16 | 51.56821 | 0.69975 | 48 ft | 0 kts | 191° |
| 2026-05-06 14:19 | 51.56820 | 0.69975 | 48 ft | 1 kts | 180° |
| 2026-05-06 14:19 | 51.56820 | 0.69989 | 48 ft | 2 kts | 24° |
| 2026-05-06 14:19 | 51.56853 | 0.69981 | 48 ft | 10 kts | 349° |
| 2026-05-06 14:20 | 51.56890 | 0.69867 | 48 ft | 15 kts | 281° |
| 2026-05-06 14:20 | 51.56911 | 0.69677 | 48 ft | 19 kts | 278° |
| 2026-05-06 14:20 | 51.56915 | 0.69507 | 48 ft | 12 kts | 258° |
| 2026-05-06 14:20 | 51.56898 | 0.69345 | 49 ft | 17 kts | 263° |
| 2026-05-06 14:21 | 51.56865 | 0.69218 | 49 ft | 9 kts | 236° |
| 2026-05-06 14:21 | 51.56845 | 0.69171 | 49 ft | 0 kts | 235° |
| 2026-05-06 14:25 | 51.56836 | 0.69151 | 49 ft | 8 kts | 244° |
| 2026-05-06 14:25 | 51.56871 | 0.69067 | 51 ft | 9 kts | 323° |
| 2026-05-06 14:25 | 51.56919 | 0.69057 | 52 ft | 8 kts | 50° |
| 2026-05-06 14:26 | 51.56930 | 0.69078 | 52 ft | 0 kts | 54° |
| 2026-05-06 14:27 | 51.56950 | 0.69119 | 52 ft | 25 kts | 50° |
| 2026-05-06 14:27 | 51.57167 | 0.69596 | 85 ft | 70 kts | 52° |
| 2026-05-06 14:27 | 51.57476 | 0.70225 | 348 ft | 76 kts | 49° |
| 2026-05-06 14:27 | 51.57886 | 0.70982 | 522 ft | 101 kts | 45° |
| 2026-05-06 14:28 | 51.58403 | 0.71840 | 678 ft | 113 kts | 43° |
| 2026-05-06 14:28 | 51.59051 | 0.72541 | 859 ft | 113 kts | 10° |
| 2026-05-06 14:28 | 51.59833 | 0.72350 | 1057 ft | 116 kts | 342° |
| 2026-05-06 14:28 | 51.60587 | 0.71911 | 1249 ft | 115 kts | 341° |
| 2026-05-06 14:29 | 51.61328 | 0.71472 | 1427 ft | 115 kts | 341° |
| 2026-05-06 14:29 | 51.62067 | 0.71018 | 1595 ft | 111 kts | 335° |
| 2026-05-06 14:29 | 51.62538 | 0.70068 | 1769 ft | 112 kts | 292° |
| 2026-05-06 14:29 | 51.62725 | 0.68798 | 1796 ft | 122 kts | 287° |
| 2026-05-06 14:30 | 51.62901 | 0.67459 | 1796 ft | 128 kts | 287° |
| 2026-05-06 14:30 | 51.63083 | 0.66042 | 1799 ft | 130 kts | 287° |
| 2026-05-06 14:30 | 51.63269 | 0.64611 | 1796 ft | 131 kts | 287° |
| 2026-05-06 14:30 | 51.63463 | 0.63178 | 1803 ft | 131 kts | 287° |
| 2026-05-06 14:31 | 51.63657 | 0.61744 | 1842 ft | 130 kts | 287° |
| 2026-05-06 14:31 | 51.63846 | 0.60320 | 1898 ft | 130 kts | 287° |
| 2026-05-06 14:31 | 51.64031 | 0.58903 | 1940 ft | 129 kts | 287° |
| 2026-05-06 14:31 | 51.64207 | 0.57501 | 1993 ft | 128 kts | 287° |
| 2026-05-06 14:32 | 51.64388 | 0.56078 | 1995 ft | 131 kts | 287° |
| 2026-05-06 14:32 | 51.64581 | 0.54627 | 1992 ft | 133 kts | 288° |
| 2026-05-06 14:32 | 51.64777 | 0.53167 | 1994 ft | 133 kts | 287° |
| 2026-05-06 14:32 | 51.64931 | 0.51691 | 1995 ft | 137 kts | 278° |
| 2026-05-06 14:33 | 51.64940 | 0.50157 | 1996 ft | 136 kts | 280° |
| 2026-05-06 14:33 | 51.65171 | 0.48713 | 1993 ft | 132 kts | 301° |
| 2026-05-06 14:33 | 51.65611 | 0.47439 | 1998 ft | 130 kts | 307° |
| 2026-05-06 14:33 | 51.66098 | 0.46231 | 1993 ft | 127 kts | 314° |
| 2026-05-06 14:34 | 51.66778 | 0.45357 | 1976 ft | 126 kts | 335° |
| 2026-05-06 14:34 | 51.67615 | 0.44979 | 1976 ft | 126 kts | 356° |
| 2026-05-06 14:34 | 51.68484 | 0.45153 | 1994 ft | 126 kts | 13° |
| 2026-05-06 14:34 | 51.69302 | 0.45514 | 2125 ft | 119 kts | 13° |
| 2026-05-06 14:35 | 51.70081 | 0.45858 | 2247 ft | 113 kts | 13° |
| 2026-05-06 14:35 | 51.70839 | 0.46195 | 2398 ft | 114 kts | 13° |
| 2026-05-06 14:35 | 51.71595 | 0.46530 | 2511 ft | 111 kts | 13° |
| 2026-05-06 14:35 | 51.72335 | 0.46859 | 2630 ft | 109 kts | 13° |
| 2026-05-06 14:36 | 51.73060 | 0.47181 | 2766 ft | 108 kts | 13° |
| 2026-05-06 14:36 | 51.73781 | 0.47503 | 2909 ft | 107 kts | 14° |
| 2026-05-06 14:36 | 51.74507 | 0.47827 | 2982 ft | 112 kts | 14° |
| 2026-05-06 14:36 | 51.75279 | 0.48170 | 2984 ft | 118 kts | 13° |
| 2026-05-06 14:37 | 51.76081 | 0.48527 | 2983 ft | 120 kts | 13° |
| 2026-05-06 14:37 | 51.76893 | 0.48888 | 2985 ft | 122 kts | 14° |
| 2026-05-06 14:37 | 51.77714 | 0.49254 | 2985 ft | 123 kts | 14° |
| 2026-05-06 14:37 | 51.78537 | 0.49622 | 2984 ft | 123 kts | 14° |
| 2026-05-06 14:38 | 51.79362 | 0.49990 | 2990 ft | 124 kts | 14° |
| 2026-05-06 14:38 | 51.80193 | 0.50359 | 2989 ft | 124 kts | 14° |
| 2026-05-06 14:38 | 51.81028 | 0.50733 | 2987 ft | 125 kts | 14° |
| 2026-05-06 14:38 | 51.81868 | 0.51108 | 2989 ft | 125 kts | 14° |
| 2026-05-06 14:39 | 51.82701 | 0.51479 | 2989 ft | 126 kts | 13° |
| 2026-05-06 14:39 | 51.83543 | 0.51853 | 2990 ft | 125 kts | 13° |
| 2026-05-06 14:39 | 51.84379 | 0.52227 | 2989 ft | 124 kts | 14° |
| 2026-05-06 14:39 | 51.85209 | 0.52599 | 2987 ft | 123 kts | 14° |
| 2026-05-06 14:40 | 51.86036 | 0.52879 | 2972 ft | 122 kts | 357° |
| 2026-05-06 14:40 | 51.86763 | 0.52216 | 2990 ft | 128 kts | 311° |
| 2026-05-06 14:40 | 51.87023 | 0.50802 | 3002 ft | 135 kts | 283° |
| 2026-05-06 14:40 | 51.87116 | 0.49275 | 2977 ft | 137 kts | 281° |
| 2026-05-06 14:41 | 51.87203 | 0.47718 | 2844 ft | 140 kts | 281° |
| 2026-05-06 14:41 | 51.87290 | 0.46150 | 2715 ft | 140 kts | 281° |
| 2026-05-06 14:41 | 51.87377 | 0.44569 | 2589 ft | 142 kts | 281° |
| 2026-05-06 14:41 | 51.87457 | 0.42979 | 2460 ft | 143 kts | 279° |
| 2026-05-06 14:42 | 51.87497 | 0.41367 | 2331 ft | 144 kts | 278° |
| 2026-05-06 14:42 | 51.87529 | 0.39743 | 2197 ft | 144 kts | 278° |
| 2026-05-06 14:42 | 51.87567 | 0.38132 | 2068 ft | 142 kts | 278° |
| 2026-05-06 14:42 | 51.87606 | 0.36560 | 1999 ft | 135 kts | 278° |
| 2026-05-06 14:43 | 51.87637 | 0.35022 | 2006 ft | 140 kts | 278° |
| 2026-05-06 14:43 | 51.87667 | 0.33426 | 2003 ft | 143 kts | 278° |
| 2026-05-06 14:43 | 51.87710 | 0.31836 | 1998 ft | 139 kts | 279° |
| 2026-05-06 14:43 | 51.87775 | 0.30294 | 1998 ft | 136 kts | 280° |
| 2026-05-06 14:44 | 51.87839 | 0.28761 | 1999 ft | 137 kts | 280° |
| 2026-05-06 14:44 | 51.87901 | 0.27212 | 2000 ft | 138 kts | 280° |
| 2026-05-06 14:44 | 51.87963 | 0.25653 | 1999 ft | 139 kts | 280° |
| 2026-05-06 14:45 | 51.88095 | 0.22511 | 1999 ft | 141 kts | 280° |
| 2026-05-06 14:45 | 51.88154 | 0.20930 | 1991 ft | 141 kts | 280° |
| 2026-05-06 14:45 | 51.88211 | 0.19352 | 1998 ft | 140 kts | 279° |
| 2026-05-06 14:45 | 51.88282 | 0.17770 | 1997 ft | 142 kts | 279° |
| 2026-05-06 14:46 | 51.88354 | 0.16234 | 1999 ft | 142 kts | 280° |
| 2026-05-06 14:46 | 51.88427 | 0.14632 | 1996 ft | 143 kts | 280° |
| 2026-05-06 14:46 | 51.88490 | 0.13027 | 1999 ft | 142 kts | 280° |
| 2026-05-06 14:46 | 51.88391 | 0.11416 | 1987 ft | 146 kts | 262° |
| 2026-05-06 14:47 | 51.88123 | 0.09834 | 1987 ft | 146 kts | 260° |
| 2026-05-06 14:47 | 51.87810 | 0.08263 | 1982 ft | 150 kts | 249° |
| 2026-05-06 14:47 | 51.87090 | 0.07009 | 2002 ft | 157 kts | 224° |
| 2026-05-06 14:47 | 51.86199 | 0.05947 | 1983 ft | 159 kts | 219° |
| 2026-05-06 14:48 | 51.85307 | 0.04941 | 1994 ft | 154 kts | 220° |
| 2026-05-06 14:48 | 51.84460 | 0.03906 | 1995 ft | 152 kts | 221° |
| 2026-05-06 14:48 | 51.83644 | 0.02829 | 1977 ft | 150 kts | 224° |
| 2026-05-06 14:48 | 51.82864 | 0.01750 | 1992 ft | 145 kts | 226° |
| 2026-05-06 14:49 | 51.82129 | 0.00653 | 1990 ft | 143 kts | 227° |
| 2026-05-06 14:49 | 51.81412 | -0.00447 | 1989 ft | 142 kts | 228° |
| 2026-05-06 14:49 | 51.80687 | -0.01536 | 1990 ft | 142 kts | 229° |
| 2026-05-06 14:49 | 51.79789 | -0.02236 | 1939 ft | 148 kts | 183° |
| 2026-05-06 14:50 | 51.78831 | -0.01869 | 2015 ft | 140 kts | 157° |
| 2026-05-06 14:50 | 51.78007 | -0.01089 | 2063 ft | 135 kts | 135° |
| 2026-05-06 14:50 | 51.77365 | 0.00012 | 2053 ft | 135 kts | 123° |
| 2026-05-06 14:50 | 51.76809 | 0.01200 | 2052 ft | 133 kts | 118° |
| 2026-05-06 14:51 | 51.76288 | 0.02436 | 2035 ft | 133 kts | 112° |
| 2026-05-06 14:51 | 51.76073 | 0.03859 | 2079 ft | 126 kts | 79° |
| 2026-05-06 14:51 | 51.76276 | 0.05199 | 2094 ft | 124 kts | 57° |
| 2026-05-06 14:51 | 51.76782 | 0.06294 | 2225 ft | 122 kts | 42° |
| 2026-05-06 14:52 | 51.77404 | 0.07243 | 2319 ft | 122 kts | 38° |
| 2026-05-06 14:52 | 51.78040 | 0.08158 | 2353 ft | 124 kts | 38° |
| 2026-05-06 14:52 | 51.78720 | 0.09082 | 2308 ft | 128 kts | 35° |
| 2026-05-06 14:52 | 51.79383 | 0.09980 | 2335 ft | 120 kts | 36° |
| 2026-05-06 14:53 | 51.79976 | 0.10851 | 2377 ft | 115 kts | 38° |
| 2026-05-06 14:53 | 51.80544 | 0.11690 | 2407 ft | 100 kts | 37° |
| 2026-05-06 14:53 | 51.81013 | 0.12383 | 2400 ft | 88 kts | 36° |
| 2026-05-06 14:53 | 51.81461 | 0.13035 | 2368 ft | 86 kts | 35° |
| 2026-05-06 14:54 | 51.81900 | 0.13694 | 2329 ft | 87 kts | 38° |
| 2026-05-06 14:54 | 51.82335 | 0.14391 | 2302 ft | 87 kts | 36° |
| 2026-05-06 14:54 | 51.82760 | 0.15035 | 2324 ft | 83 kts | 35° |
| 2026-05-06 14:54 | 51.83186 | 0.15646 | 2329 ft | 81 kts | 34° |
| 2026-05-06 14:55 | 51.83611 | 0.16256 | 2269 ft | 82 kts | 35° |
| 2026-05-06 14:55 | 51.84035 | 0.16894 | 2181 ft | 84 kts | 37° |
| 2026-05-06 14:55 | 51.84459 | 0.17559 | 2067 ft | 85 kts | 35° |
| 2026-05-06 14:55 | 51.84917 | 0.18221 | 1875 ft | 93 kts | 34° |
| 2026-05-06 14:56 | 51.85340 | 0.18850 | 1681 ft | 68 kts | 37° |
| 2026-05-06 14:56 | 51.85655 | 0.19354 | 1416 ft | 59 kts | 34° |
| 2026-05-06 14:56 | 51.85967 | 0.19780 | 1241 ft | 61 kts | 31° |
| 2026-05-06 14:56 | 51.86300 | 0.20226 | 1064 ft | 64 kts | 32° |
| 2026-05-06 14:57 | 51.86635 | 0.20712 | 931 ft | 65 kts | 35° |
| 2026-05-06 14:57 | 51.86961 | 0.21190 | 688 ft | 61 kts | 33° |
| 2026-05-06 14:57 | 51.87268 | 0.21628 | 549 ft | 57 kts | 39° |
| 2026-05-06 14:57 | 51.87550 | 0.22054 | 406 ft | 55 kts | 38° |
| 2026-05-06 14:58 | 51.87808 | 0.22437 | 337 ft | 41 kts | 41° |
| 2026-05-06 14:58 | 51.87979 | 0.22689 | 336 ft | 28 kts | 42° |
| 2026-05-06 14:58 | 51.88107 | 0.22883 | 331 ft | 25 kts | 43° |
| 2026-05-06 14:58 | 51.88203 | 0.23031 | 332 ft | 30 kts | 44° |
| 2026-05-06 14:59 | 51.88322 | 0.23169 | 333 ft | 11 kts | 357° |
| 2026-05-06 14:59 | 51.88362 | 0.23120 | 334 ft | 12 kts | 295° |
| 2026-05-06 14:59 | 51.88395 | 0.22990 | 335 ft | 10 kts | 289° |
| 2026-05-06 14:59 | 51.88382 | 0.22912 | 334 ft | 8 kts | 227° |
| 2026-05-06 15:00 | 51.88352 | 0.22830 | 332 ft | 10 kts | 286° |
| 2026-05-06 15:00 | 51.88360 | 0.22738 | 334 ft | 4 kts | 251° |
| 2026-05-06 15:00 | 51.88354 | 0.22726 | 332 ft | 0 kts | 217° |